sensor_id;sensor_type;location;lat;lon;timestamp;P1;durP1;ratioP1;P2;durP2;ratioP2
48685;SDS011;34485;51.536;3.816;2022-12-31T00:00:02;6.17;;;2.50;;
48685;SDS011;34485;51.536;3.816;2022-12-31T00:02:30;6.10;;;2.80;;
48685;SDS011;34485;51.536;3.816;2022-12-31T00:04:55;7.88;;;2.72;;
48685;SDS011;34485;51.536;3.816;2022-12-31T00:07:21;5.67;;;1.90;;
48685;SDS011;34485;51.536;3.816;2022-12-31T00:09:46;6.73;;;2.70;;
48685;SDS011;34485;51.536;3.816;2022-12-31T00:12:12;6.40;;;3.40;;
48685;SDS011;34485;51.536;3.816;2022-12-31T00:14:37;10.90;;;4.03;;
48685;SDS011;34485;51.536;3.816;2022-12-31T00:17:03;6.90;;;3.53;;
48685;SDS011;34485;51.536;3.816;2022-12-31T00:19:29;6.47;;;2.75;;
48685;SDS011;34485;51.536;3.816;2022-12-31T00:21:54;4.57;;;2.07;;
48685;SDS011;34485;51.536;3.816;2022-12-31T00:24:20;3.37;;;1.83;;
48685;SDS011;34485;51.536;3.816;2022-12-31T00:26:45;6.57;;;2.83;;
48685;SDS011;34485;51.536;3.816;2022-12-31T00:29:11;5.70;;;2.87;;
48685;SDS011;34485;51.536;3.816;2022-12-31T00:31:37;4.10;;;2.97;;
48685;SDS011;34485;51.536;3.816;2022-12-31T00:34:03;5.60;;;2.33;;
48685;SDS011;34485;51.536;3.816;2022-12-31T00:36:30;11.02;;;2.90;;
48685;SDS011;34485;51.536;3.816;2022-12-31T00:38:59;4.75;;;2.88;;
48685;SDS011;34485;51.536;3.816;2022-12-31T00:41:26;5.40;;;2.15;;
48685;SDS011;34485;51.536;3.816;2022-12-31T00:43:52;6.05;;;2.65;;
48685;SDS011;34485;51.536;3.816;2022-12-31T00:46:18;8.00;;;2.13;;
48685;SDS011;34485;51.536;3.816;2022-12-31T00:48:45;7.10;;;3.15;;
48685;SDS011;34485;51.536;3.816;2022-12-31T00:51:11;3.92;;;2.00;;
48685;SDS011;34485;51.536;3.816;2022-12-31T00:53:39;7.70;;;1.67;;
48685;SDS011;34485;51.536;3.816;2022-12-31T00:56:06;9.70;;;1.92;;
48685;SDS011;34485;51.536;3.816;2022-12-31T00:58:37;4.75;;;2.17;;
48685;SDS011;34485;51.536;3.816;2022-12-31T01:01:09;7.43;;;1.92;;
48685;SDS011;34485;51.536;3.816;2022-12-31T01:03:38;4.72;;;2.00;;
48685;SDS011;34485;51.536;3.816;2022-12-31T01:06:03;5.50;;;1.53;;
48685;SDS011;34485;51.536;3.816;2022-12-31T01:08:29;5.22;;;2.25;;
48685;SDS011;34485;51.536;3.816;2022-12-31T01:10:55;11.20;;;2.30;;
48685;SDS011;34485;51.536;3.816;2022-12-31T01:13:39;7.35;;;2.05;;
48685;SDS011;34485;51.536;3.816;2022-12-31T01:16:06;6.70;;;1.93;;
48685;SDS011;34485;51.536;3.816;2022-12-31T01:18:36;4.10;;;1.67;;
48685;SDS011;34485;51.536;3.816;2022-12-31T01:21:03;4.60;;;1.70;;
48685;SDS011;34485;51.536;3.816;2022-12-31T01:23:31;12.85;;;2.28;;
48685;SDS011;34485;51.536;3.816;2022-12-31T01:26:00;8.43;;;2.27;;
48685;SDS011;34485;51.536;3.816;2022-12-31T01:28:27;7.07;;;2.50;;
48685;SDS011;34485;51.536;3.816;2022-12-31T01:30:53;11.10;;;2.47;;
48685;SDS011;34485;51.536;3.816;2022-12-31T01:33:19;9.47;;;2.70;;
48685;SDS011;34485;51.536;3.816;2022-12-31T01:35:44;10.13;;;2.25;;
48685;SDS011;34485;51.536;3.816;2022-12-31T01:38:10;8.23;;;1.97;;
48685;SDS011;34485;51.536;3.816;2022-12-31T01:40:36;9.38;;;1.98;;
48685;SDS011;34485;51.536;3.816;2022-12-31T01:43:05;7.40;;;1.90;;
48685;SDS011;34485;51.536;3.816;2022-12-31T01:45:39;6.30;;;2.00;;
48685;SDS011;34485;51.536;3.816;2022-12-31T01:48:06;4.35;;;2.25;;
48685;SDS011;34485;51.536;3.816;2022-12-31T01:50:36;8.55;;;1.98;;
48685;SDS011;34485;51.536;3.816;2022-12-31T01:53:04;8.48;;;2.42;;
48685;SDS011;34485;51.536;3.816;2022-12-31T01:55:33;5.90;;;2.07;;
48685;SDS011;34485;51.536;3.816;2022-12-31T01:58:08;5.50;;;1.75;;
48685;SDS011;34485;51.536;3.816;2022-12-31T02:00:58;6.10;;;2.90;;
48685;SDS011;34485;51.536;3.816;2022-12-31T02:03:24;4.57;;;2.25;;
48685;SDS011;34485;51.536;3.816;2022-12-31T02:06:07;7.47;;;1.90;;
48685;SDS011;34485;51.536;3.816;2022-12-31T02:08:48;7.70;;;1.70;;
48685;SDS011;34485;51.536;3.816;2022-12-31T02:11:19;7.53;;;2.20;;
48685;SDS011;34485;51.536;3.816;2022-12-31T02:13:45;5.80;;;1.92;;
48685;SDS011;34485;51.536;3.816;2022-12-31T02:16:17;10.57;;;1.83;;
48685;SDS011;34485;51.536;3.816;2022-12-31T02:18:56;5.65;;;1.77;;
48685;SDS011;34485;51.536;3.816;2022-12-31T02:21:36;7.63;;;1.95;;
48685;SDS011;34485;51.536;3.816;2022-12-31T02:32:23;6.95;;;3.22;;
48685;SDS011;34485;51.536;3.816;2022-12-31T02:35:18;5.90;;;2.55;;
48685;SDS011;34485;51.536;3.816;2022-12-31T02:37:53;4.57;;;2.55;;
48685;SDS011;34485;51.536;3.816;2022-12-31T02:40:25;11.93;;;2.88;;
48685;SDS011;34485;51.536;3.816;2022-12-31T02:42:51;5.30;;;3.03;;
48685;SDS011;34485;51.536;3.816;2022-12-31T02:45:18;3.47;;;2.22;;
48685;SDS011;34485;51.536;3.816;2022-12-31T02:53:23;5.28;;;2.45;;
48685;SDS011;34485;51.536;3.816;2022-12-31T02:56:08;6.43;;;1.77;;
48685;SDS011;34485;51.536;3.816;2022-12-31T02:58:57;6.50;;;2.40;;
48685;SDS011;34485;51.536;3.816;2022-12-31T03:02:10;4.97;;;2.03;;
48685;SDS011;34485;51.536;3.816;2022-12-31T03:05:13;4.20;;;2.10;;
48685;SDS011;34485;51.536;3.816;2022-12-31T03:07:32;7.15;;;2.47;;
48685;SDS011;34485;51.536;3.816;2022-12-31T03:09:58;2.30;;;2.10;;
48685;SDS011;34485;51.536;3.816;2022-12-31T03:12:26;2.75;;;2.22;;
48685;SDS011;34485;51.536;3.816;2022-12-31T03:15:31;6.78;;;2.05;;
48685;SDS011;34485;51.536;3.816;2022-12-31T03:20:36;3.40;;;2.72;;
48685;SDS011;34485;51.536;3.816;2022-12-31T03:23:33;4.53;;;2.30;;
48685;SDS011;34485;51.536;3.816;2022-12-31T03:26:00;5.72;;;3.03;;
48685;SDS011;34485;51.536;3.816;2022-12-31T03:28:28;4.75;;;3.15;;
48685;SDS011;34485;51.536;3.816;2022-12-31T03:30:55;3.25;;;2.97;;
48685;SDS011;34485;51.536;3.816;2022-12-31T03:33:22;4.20;;;3.38;;
48685;SDS011;34485;51.536;3.816;2022-12-31T03:35:48;3.00;;;2.80;;
48685;SDS011;34485;51.536;3.816;2022-12-31T03:38:15;3.50;;;3.20;;
48685;SDS011;34485;51.536;3.816;2022-12-31T03:40:43;6.07;;;3.90;;
48685;SDS011;34485;51.536;3.816;2022-12-31T03:43:10;5.57;;;4.18;;
48685;SDS011;34485;51.536;3.816;2022-12-31T03:45:36;4.13;;;3.87;;
48685;SDS011;34485;51.536;3.816;2022-12-31T03:48:02;4.22;;;3.17;;
48685;SDS011;34485;51.536;3.816;2022-12-31T03:50:29;5.53;;;4.70;;
48685;SDS011;34485;51.536;3.816;2022-12-31T03:52:54;4.90;;;4.50;;
48685;SDS011;34485;51.536;3.816;2022-12-31T03:55:20;4.57;;;4.10;;
48685;SDS011;34485;51.536;3.816;2022-12-31T03:57:46;4.23;;;3.87;;
48685;SDS011;34485;51.536;3.816;2022-12-31T04:00:12;5.22;;;3.58;;
48685;SDS011;34485;51.536;3.816;2022-12-31T04:02:39;2.50;;;2.40;;
48685;SDS011;34485;51.536;3.816;2022-12-31T04:05:06;3.20;;;2.30;;
48685;SDS011;34485;51.536;3.816;2022-12-31T04:07:32;1.80;;;1.70;;
48685;SDS011;34485;51.536;3.816;2022-12-31T04:09:57;1.77;;;1.67;;
48685;SDS011;34485;51.536;3.816;2022-12-31T04:12:23;1.90;;;1.80;;
48685;SDS011;34485;51.536;3.816;2022-12-31T04:14:49;2.07;;;1.90;;
48685;SDS011;34485;51.536;3.816;2022-12-31T04:17:15;1.92;;;1.83;;
48685;SDS011;34485;51.536;3.816;2022-12-31T04:19:40;2.13;;;1.70;;
48685;SDS011;34485;51.536;3.816;2022-12-31T04:22:06;1.47;;;1.37;;
48685;SDS011;34485;51.536;3.816;2022-12-31T04:24:32;1.73;;;1.63;;
48685;SDS011;34485;51.536;3.816;2022-12-31T04:26:57;2.13;;;2.03;;
48685;SDS011;34485;51.536;3.816;2022-12-31T04:29:23;1.40;;;1.30;;
48685;SDS011;34485;51.536;3.816;2022-12-31T04:31:49;1.00;;;0.97;;
48685;SDS011;34485;51.536;3.816;2022-12-31T04:34:14;2.20;;;1.43;;
48685;SDS011;34485;51.536;3.816;2022-12-31T04:36:40;1.70;;;1.60;;
48685;SDS011;34485;51.536;3.816;2022-12-31T04:39:06;1.40;;;1.30;;
48685;SDS011;34485;51.536;3.816;2022-12-31T04:41:31;2.38;;;1.77;;
48685;SDS011;34485;51.536;3.816;2022-12-31T04:43:57;1.50;;;1.40;;
48685;SDS011;34485;51.536;3.816;2022-12-31T04:46:24;1.30;;;1.30;;
48685;SDS011;34485;51.536;3.816;2022-12-31T04:48:52;1.50;;;1.45;;
48685;SDS011;34485;51.536;3.816;2022-12-31T04:51:18;2.20;;;2.10;;
48685;SDS011;34485;51.536;3.816;2022-12-31T04:53:44;2.30;;;2.13;;
48685;SDS011;34485;51.536;3.816;2022-12-31T04:56:10;2.30;;;2.20;;
48685;SDS011;34485;51.536;3.816;2022-12-31T04:58:36;1.80;;;1.53;;
48685;SDS011;34485;51.536;3.816;2022-12-31T05:01:03;1.65;;;1.58;;
48685;SDS011;34485;51.536;3.816;2022-12-31T05:03:29;1.63;;;1.63;;
48685;SDS011;34485;51.536;3.816;2022-12-31T05:06:01;3.10;;;2.10;;
48685;SDS011;34485;51.536;3.816;2022-12-31T05:08:29;2.00;;;1.90;;
48685;SDS011;34485;51.536;3.816;2022-12-31T05:10:55;2.00;;;1.90;;
48685;SDS011;34485;51.536;3.816;2022-12-31T05:13:21;2.45;;;2.35;;
48685;SDS011;34485;51.536;3.816;2022-12-31T05:15:47;2.57;;;2.37;;
48685;SDS011;34485;51.536;3.816;2022-12-31T05:18:12;2.25;;;2.05;;
48685;SDS011;34485;51.536;3.816;2022-12-31T05:20:38;2.70;;;2.50;;
48685;SDS011;34485;51.536;3.816;2022-12-31T05:23:03;2.25;;;2.08;;
48685;SDS011;34485;51.536;3.816;2022-12-31T05:25:29;2.97;;;2.70;;
48685;SDS011;34485;51.536;3.816;2022-12-31T05:27:55;3.33;;;3.13;;
48685;SDS011;34485;51.536;3.816;2022-12-31T05:30:21;3.53;;;3.23;;
48685;SDS011;34485;51.536;3.816;2022-12-31T05:32:47;3.20;;;3.00;;
48685;SDS011;34485;51.536;3.816;2022-12-31T05:35:13;2.80;;;2.60;;
48685;SDS011;34485;51.536;3.816;2022-12-31T05:37:39;3.80;;;3.50;;
48685;SDS011;34485;51.536;3.816;2022-12-31T05:40:04;3.28;;;3.08;;
48685;SDS011;34485;51.536;3.816;2022-12-31T05:42:31;2.47;;;2.38;;
48685;SDS011;34485;51.536;3.816;2022-12-31T05:44:56;3.40;;;2.40;;
48685;SDS011;34485;51.536;3.816;2022-12-31T05:47:22;4.78;;;2.58;;
48685;SDS011;34485;51.536;3.816;2022-12-31T05:49:48;2.95;;;2.17;;
48685;SDS011;34485;51.536;3.816;2022-12-31T05:52:14;5.23;;;2.13;;
48685;SDS011;34485;51.536;3.816;2022-12-31T05:54:40;2.75;;;2.55;;
48685;SDS011;34485;51.536;3.816;2022-12-31T05:57:05;3.33;;;2.47;;
48685;SDS011;34485;51.536;3.816;2022-12-31T05:59:31;2.45;;;2.17;;
48685;SDS011;34485;51.536;3.816;2022-12-31T06:01:57;3.53;;;2.42;;
48685;SDS011;34485;51.536;3.816;2022-12-31T06:04:23;4.03;;;2.30;;
48685;SDS011;34485;51.536;3.816;2022-12-31T06:06:49;3.60;;;2.60;;
48685;SDS011;34485;51.536;3.816;2022-12-31T06:09:15;2.33;;;1.87;;
48685;SDS011;34485;51.536;3.816;2022-12-31T06:11:42;2.08;;;1.88;;
48685;SDS011;34485;51.536;3.816;2022-12-31T06:14:08;2.92;;;2.60;;
48685;SDS011;34485;51.536;3.816;2022-12-31T06:16:34;2.85;;;2.72;;
48685;SDS011;34485;51.536;3.816;2022-12-31T06:19:00;2.60;;;2.40;;
48685;SDS011;34485;51.536;3.816;2022-12-31T06:21:28;2.30;;;2.13;;
48685;SDS011;34485;51.536;3.816;2022-12-31T06:23:54;3.50;;;2.45;;
48685;SDS011;34485;51.536;3.816;2022-12-31T06:26:20;2.72;;;2.53;;
48685;SDS011;34485;51.536;3.816;2022-12-31T06:28:45;2.83;;;2.60;;
48685;SDS011;34485;51.536;3.816;2022-12-31T06:31:12;3.10;;;2.90;;
48685;SDS011;34485;51.536;3.816;2022-12-31T06:33:38;2.70;;;2.50;;
48685;SDS011;34485;51.536;3.816;2022-12-31T06:36:06;2.67;;;2.47;;
48685;SDS011;34485;51.536;3.816;2022-12-31T06:38:35;2.40;;;2.15;;
48685;SDS011;34485;51.536;3.816;2022-12-31T06:41:02;4.70;;;3.00;;
48685;SDS011;34485;51.536;3.816;2022-12-31T06:43:29;4.47;;;1.85;;
48685;SDS011;34485;51.536;3.816;2022-12-31T06:45:54;3.33;;;2.50;;
48685;SDS011;34485;51.536;3.816;2022-12-31T06:48:20;3.70;;;2.40;;
48685;SDS011;34485;51.536;3.816;2022-12-31T06:50:45;2.78;;;2.10;;
48685;SDS011;34485;51.536;3.816;2022-12-31T06:53:11;3.33;;;2.73;;
48685;SDS011;34485;51.536;3.816;2022-12-31T06:55:37;7.33;;;1.90;;
48685;SDS011;34485;51.536;3.816;2022-12-31T06:58:03;2.63;;;2.00;;
48685;SDS011;34485;51.536;3.816;2022-12-31T07:00:28;7.47;;;1.55;;
48685;SDS011;34485;51.536;3.816;2022-12-31T07:06:05;9.15;;;2.75;;
48685;SDS011;34485;51.536;3.816;2022-12-31T07:08:39;7.13;;;2.40;;
48685;SDS011;34485;51.536;3.816;2022-12-31T07:14:51;7.25;;;2.30;;
48685;SDS011;34485;51.536;3.816;2022-12-31T07:17:53;16.40;;;2.33;;
48685;SDS011;34485;51.536;3.816;2022-12-31T07:20:27;15.18;;;3.30;;
48685;SDS011;34485;51.536;3.816;2022-12-31T07:22:53;13.97;;;3.07;;
48685;SDS011;34485;51.536;3.816;2022-12-31T07:25:19;16.95;;;3.67;;
48685;SDS011;34485;51.536;3.816;2022-12-31T07:30:43;19.60;;;2.90;;
48685;SDS011;34485;51.536;3.816;2022-12-31T07:33:27;15.10;;;3.23;;
48685;SDS011;34485;51.536;3.816;2022-12-31T07:38:55;26.50;;;3.67;;
48685;SDS011;34485;51.536;3.816;2022-12-31T07:41:45;13.23;;;3.25;;
48685;SDS011;34485;51.536;3.816;2022-12-31T07:44:48;17.17;;;3.75;;
48685;SDS011;34485;51.536;3.816;2022-12-31T07:47:34;8.03;;;2.80;;
48685;SDS011;34485;51.536;3.816;2022-12-31T07:50:00;9.15;;;3.03;;
48685;SDS011;34485;51.536;3.816;2022-12-31T07:52:26;4.75;;;2.17;;
48685;SDS011;34485;51.536;3.816;2022-12-31T07:54:51;10.65;;;3.00;;
48685;SDS011;34485;51.536;3.816;2022-12-31T07:57:18;4.80;;;1.70;;
48685;SDS011;34485;51.536;3.816;2022-12-31T07:59:51;9.38;;;2.80;;
48685;SDS011;34485;51.536;3.816;2022-12-31T08:02:56;6.65;;;3.40;;
48685;SDS011;34485;51.536;3.816;2022-12-31T08:05:48;4.32;;;1.67;;
48685;SDS011;34485;51.536;3.816;2022-12-31T08:08:49;6.47;;;2.80;;
48685;SDS011;34485;51.536;3.816;2022-12-31T08:11:42;5.60;;;2.33;;
48685;SDS011;34485;51.536;3.816;2022-12-31T08:14:20;3.65;;;2.28;;
48685;SDS011;34485;51.536;3.816;2022-12-31T08:16:45;5.32;;;2.22;;
48685;SDS011;34485;51.536;3.816;2022-12-31T08:19:27;3.50;;;2.00;;
48685;SDS011;34485;51.536;3.816;2022-12-31T08:24:47;4.43;;;2.25;;
48685;SDS011;34485;51.536;3.816;2022-12-31T08:30:12;3.38;;;2.20;;
48685;SDS011;34485;51.536;3.816;2022-12-31T08:41:42;6.07;;;1.92;;
48685;SDS011;34485;51.536;3.816;2022-12-31T08:46:59;4.75;;;2.05;;
48685;SDS011;34485;51.536;3.816;2022-12-31T08:49:27;2.97;;;2.20;;
48685;SDS011;34485;51.536;3.816;2022-12-31T08:51:55;4.40;;;3.00;;
48685;SDS011;34485;51.536;3.816;2022-12-31T08:54:22;4.05;;;2.15;;
48685;SDS011;34485;51.536;3.816;2022-12-31T08:56:50;5.40;;;2.15;;
48685;SDS011;34485;51.536;3.816;2022-12-31T09:10:41;6.13;;;2.05;;
48685;SDS011;34485;51.536;3.816;2022-12-31T09:18:32;6.07;;;2.00;;
48685;SDS011;34485;51.536;3.816;2022-12-31T09:21:03;5.55;;;2.42;;
48685;SDS011;34485;51.536;3.816;2022-12-31T09:23:29;3.03;;;1.93;;
48685;SDS011;34485;51.536;3.816;2022-12-31T09:28:42;3.28;;;1.88;;
48685;SDS011;34485;51.536;3.816;2022-12-31T09:31:19;6.90;;;2.30;;
48685;SDS011;34485;51.536;3.816;2022-12-31T09:34:03;3.70;;;2.13;;
48685;SDS011;34485;51.536;3.816;2022-12-31T09:36:44;4.00;;;2.33;;
48685;SDS011;34485;51.536;3.816;2022-12-31T09:54:13;3.70;;;2.17;;
48685;SDS011;34485;51.536;3.816;2022-12-31T09:59:48;8.68;;;3.42;;
48685;SDS011;34485;51.536;3.816;2022-12-31T10:10:40;7.65;;;2.65;;
48685;SDS011;34485;51.536;3.816;2022-12-31T10:16:01;6.47;;;2.27;;
48685;SDS011;34485;51.536;3.816;2022-12-31T10:29:44;7.85;;;2.70;;
48685;SDS011;34485;51.536;3.816;2022-12-31T10:37:14;7.27;;;2.90;;
48685;SDS011;34485;51.536;3.816;2022-12-31T11:04:56;8.23;;;3.23;;
48685;SDS011;34485;51.536;3.816;2022-12-31T11:21:23;6.47;;;3.20;;
48685;SDS011;34485;51.536;3.816;2022-12-31T11:24:00;7.95;;;3.25;;
48685;SDS011;34485;51.536;3.816;2022-12-31T11:38:52;6.93;;;3.20;;
48685;SDS011;34485;51.536;3.816;2022-12-31T11:41:34;5.87;;;3.30;;
48685;SDS011;34485;51.536;3.816;2022-12-31T11:52:50;15.23;;;2.60;;
48685;SDS011;34485;51.536;3.816;2022-12-31T11:58:11;7.50;;;2.78;;
48685;SDS011;34485;51.536;3.816;2022-12-31T12:00:43;5.28;;;2.13;;
48685;SDS011;34485;51.536;3.816;2022-12-31T12:03:15;6.60;;;2.73;;
48685;SDS011;34485;51.536;3.816;2022-12-31T12:05:41;6.75;;;2.70;;
48685;SDS011;34485;51.536;3.816;2022-12-31T12:08:07;4.23;;;2.10;;
48685;SDS011;34485;51.536;3.816;2022-12-31T12:10:46;4.07;;;2.03;;
48685;SDS011;34485;51.536;3.816;2022-12-31T12:15:48;3.78;;;2.50;;
48685;SDS011;34485;51.536;3.816;2022-12-31T12:18:39;3.22;;;2.30;;
48685;SDS011;34485;51.536;3.816;2022-12-31T12:21:17;7.28;;;1.90;;
48685;SDS011;34485;51.536;3.816;2022-12-31T12:26:37;6.00;;;2.57;;
48685;SDS011;34485;51.536;3.816;2022-12-31T12:29:14;5.70;;;2.60;;
48685;SDS011;34485;51.536;3.816;2022-12-31T12:31:52;5.55;;;2.80;;
48685;SDS011;34485;51.536;3.816;2022-12-31T12:34:23;7.47;;;2.72;;
48685;SDS011;34485;51.536;3.816;2022-12-31T12:36:57;3.33;;;2.50;;
48685;SDS011;34485;51.536;3.816;2022-12-31T12:39:24;6.80;;;2.43;;
48685;SDS011;34485;51.536;3.816;2022-12-31T12:42:09;4.43;;;2.15;;
48685;SDS011;34485;51.536;3.816;2022-12-31T12:44:37;5.03;;;2.17;;
48685;SDS011;34485;51.536;3.816;2022-12-31T12:47:04;7.75;;;2.35;;
48685;SDS011;34485;51.536;3.816;2022-12-31T12:49:39;4.73;;;2.20;;
48685;SDS011;34485;51.536;3.816;2022-12-31T12:52:29;4.30;;;2.28;;
48685;SDS011;34485;51.536;3.816;2022-12-31T12:55:18;2.60;;;2.25;;
48685;SDS011;34485;51.536;3.816;2022-12-31T12:57:49;2.45;;;2.22;;
48685;SDS011;34485;51.536;3.816;2022-12-31T13:08:50;2.95;;;2.58;;
48685;SDS011;34485;51.536;3.816;2022-12-31T13:11:39;3.50;;;2.60;;
48685;SDS011;34485;51.536;3.816;2022-12-31T13:20:11;4.40;;;2.58;;
48685;SDS011;34485;51.536;3.816;2022-12-31T13:22:54;2.90;;;2.08;;
48685;SDS011;34485;51.536;3.816;2022-12-31T13:28:08;6.45;;;2.75;;
48685;SDS011;34485;51.536;3.816;2022-12-31T13:30:42;6.70;;;2.10;;
48685;SDS011;34485;51.536;3.816;2022-12-31T13:35:39;8.10;;;2.33;;
48685;SDS011;34485;51.536;3.816;2022-12-31T13:38:11;6.78;;;2.50;;
48685;SDS011;34485;51.536;3.816;2022-12-31T13:40:47;7.53;;;3.20;;
48685;SDS011;34485;51.536;3.816;2022-12-31T13:46:28;6.05;;;2.92;;
48685;SDS011;34485;51.536;3.816;2022-12-31T13:48:57;4.40;;;2.57;;
48685;SDS011;34485;51.536;3.816;2022-12-31T13:51:42;7.97;;;2.35;;
48685;SDS011;34485;51.536;3.816;2022-12-31T13:56:47;6.40;;;2.58;;
48685;SDS011;34485;51.536;3.816;2022-12-31T13:59:17;6.78;;;3.40;;
48685;SDS011;34485;51.536;3.816;2022-12-31T14:01:53;7.77;;;2.47;;
48685;SDS011;34485;51.536;3.816;2022-12-31T14:05:05;10.20;;;3.00;;
48685;SDS011;34485;51.536;3.816;2022-12-31T14:07:35;7.47;;;2.58;;
48685;SDS011;34485;51.536;3.816;2022-12-31T14:10:10;6.18;;;2.67;;
48685;SDS011;34485;51.536;3.816;2022-12-31T14:15:55;8.13;;;2.73;;
48685;SDS011;34485;51.536;3.816;2022-12-31T14:18:26;13.98;;;5.28;;
48685;SDS011;34485;51.536;3.816;2022-12-31T14:21:17;8.20;;;3.90;;
48685;SDS011;34485;51.536;3.816;2022-12-31T14:27:02;10.75;;;4.20;;
48685;SDS011;34485;51.536;3.816;2022-12-31T14:29:33;14.10;;;4.30;;
48685;SDS011;34485;51.536;3.816;2022-12-31T14:37:42;8.45;;;2.88;;
48685;SDS011;34485;51.536;3.816;2022-12-31T14:40:23;10.93;;;3.78;;
48685;SDS011;34485;51.536;3.816;2022-12-31T14:51:00;12.63;;;4.18;;
48685;SDS011;34485;51.536;3.816;2022-12-31T14:53:27;11.57;;;3.53;;
48685;SDS011;34485;51.536;3.816;2022-12-31T14:58:34;10.18;;;3.92;;
48685;SDS011;34485;51.536;3.816;2022-12-31T15:01:03;10.13;;;3.13;;
48685;SDS011;34485;51.536;3.816;2022-12-31T15:03:39;6.38;;;3.55;;
48685;SDS011;34485;51.536;3.816;2022-12-31T15:24:55;8.18;;;3.45;;
48685;SDS011;34485;51.536;3.816;2022-12-31T15:29:58;9.52;;;4.43;;
48685;SDS011;34485;51.536;3.816;2022-12-31T15:32:34;5.75;;;3.35;;
48685;SDS011;34485;51.536;3.816;2022-12-31T15:35:19;12.47;;;3.97;;
48685;SDS011;34485;51.536;3.816;2022-12-31T15:38:15;19.13;;;3.72;;
48685;SDS011;34485;51.536;3.816;2022-12-31T15:40:47;12.18;;;4.40;;
48685;SDS011;34485;51.536;3.816;2022-12-31T15:46:08;15.57;;;3.85;;
48685;SDS011;34485;51.536;3.816;2022-12-31T15:48:45;8.90;;;3.90;;
48685;SDS011;34485;51.536;3.816;2022-12-31T15:51:20;11.80;;;3.83;;
48685;SDS011;34485;51.536;3.816;2022-12-31T15:53:50;9.43;;;3.78;;
48685;SDS011;34485;51.536;3.816;2022-12-31T15:56:19;10.00;;;4.25;;
48685;SDS011;34485;51.536;3.816;2022-12-31T15:58:57;13.77;;;5.10;;
48685;SDS011;34485;51.536;3.816;2022-12-31T16:01:29;8.20;;;5.90;;
48685;SDS011;34485;51.536;3.816;2022-12-31T16:04:01;24.92;;;9.23;;
48685;SDS011;34485;51.536;3.816;2022-12-31T16:06:30;10.23;;;6.07;;
48685;SDS011;34485;51.536;3.816;2022-12-31T16:08:59;12.25;;;6.65;;
48685;SDS011;34485;51.536;3.816;2022-12-31T16:11:25;13.40;;;5.75;;
48685;SDS011;34485;51.536;3.816;2022-12-31T16:13:54;12.70;;;6.43;;
48685;SDS011;34485;51.536;3.816;2022-12-31T16:16:26;9.02;;;5.05;;
48685;SDS011;34485;51.536;3.816;2022-12-31T16:18:54;9.13;;;5.60;;
48685;SDS011;34485;51.536;3.816;2022-12-31T16:21:28;6.93;;;4.47;;
48685;SDS011;34485;51.536;3.816;2022-12-31T16:24:00;8.75;;;4.90;;
48685;SDS011;34485;51.536;3.816;2022-12-31T16:27:11;17.70;;;5.10;;
48685;SDS011;34485;51.536;3.816;2022-12-31T16:29:17;8.05;;;3.92;;
48685;SDS011;34485;51.536;3.816;2022-12-31T16:31:44;13.73;;;3.67;;
48685;SDS011;34485;51.536;3.816;2022-12-31T16:34:11;12.32;;;4.60;;
48685;SDS011;34485;51.536;3.816;2022-12-31T16:36:39;12.02;;;3.78;;
48685;SDS011;34485;51.536;3.816;2022-12-31T16:41:52;9.25;;;3.58;;
48685;SDS011;34485;51.536;3.816;2022-12-31T16:44:40;13.15;;;4.22;;
48685;SDS011;34485;51.536;3.816;2022-12-31T16:47:06;9.67;;;4.30;;
48685;SDS011;34485;51.536;3.816;2022-12-31T16:49:36;11.73;;;5.00;;
48685;SDS011;34485;51.536;3.816;2022-12-31T16:52:04;11.52;;;5.75;;
48685;SDS011;34485;51.536;3.816;2022-12-31T16:54:39;16.90;;;7.07;;
48685;SDS011;34485;51.536;3.816;2022-12-31T16:57:15;12.60;;;7.05;;
48685;SDS011;34485;51.536;3.816;2022-12-31T16:59:45;17.90;;;6.13;;
48685;SDS011;34485;51.536;3.816;2022-12-31T17:02:35;15.45;;;6.25;;
48685;SDS011;34485;51.536;3.816;2022-12-31T17:05:24;14.25;;;6.88;;
48685;SDS011;34485;51.536;3.816;2022-12-31T17:07:51;13.60;;;7.90;;
48685;SDS011;34485;51.536;3.816;2022-12-31T17:10:24;9.90;;;6.05;;
48685;SDS011;34485;51.536;3.816;2022-12-31T17:12:57;6.93;;;4.07;;
48685;SDS011;34485;51.536;3.816;2022-12-31T17:15:25;13.60;;;6.00;;
48685;SDS011;34485;51.536;3.816;2022-12-31T17:17:55;14.98;;;6.53;;
48685;SDS011;34485;51.536;3.816;2022-12-31T17:20:26;10.82;;;5.32;;
48685;SDS011;34485;51.536;3.816;2022-12-31T17:22:55;9.85;;;4.53;;
48685;SDS011;34485;51.536;3.816;2022-12-31T17:25:45;5.10;;;4.27;;
48685;SDS011;34485;51.536;3.816;2022-12-31T17:28:19;7.68;;;4.35;;
48685;SDS011;34485;51.536;3.816;2022-12-31T17:30:49;10.48;;;4.57;;
48685;SDS011;34485;51.536;3.816;2022-12-31T17:35:47;12.48;;;4.88;;
48685;SDS011;34485;51.536;3.816;2022-12-31T17:40:53;8.68;;;5.03;;
48685;SDS011;34485;51.536;3.816;2022-12-31T17:43:29;15.15;;;4.38;;
48685;SDS011;34485;51.536;3.816;2022-12-31T17:45:57;9.32;;;4.10;;
48685;SDS011;34485;51.536;3.816;2022-12-31T17:48:23;11.97;;;5.20;;
48685;SDS011;34485;51.536;3.816;2022-12-31T17:50:50;7.40;;;3.33;;
48685;SDS011;34485;51.536;3.816;2022-12-31T17:53:17;15.27;;;3.60;;
48685;SDS011;34485;51.536;3.816;2022-12-31T17:55:44;9.48;;;3.63;;
48685;SDS011;34485;51.536;3.816;2022-12-31T17:58:16;8.38;;;3.75;;
48685;SDS011;34485;51.536;3.816;2022-12-31T18:00:54;14.53;;;8.00;;
48685;SDS011;34485;51.536;3.816;2022-12-31T18:03:20;17.63;;;7.40;;
48685;SDS011;34485;51.536;3.816;2022-12-31T18:05:45;16.00;;;6.32;;
48685;SDS011;34485;51.536;3.816;2022-12-31T18:08:11;21.03;;;11.60;;
48685;SDS011;34485;51.536;3.816;2022-12-31T18:10:37;30.90;;;14.82;;
48685;SDS011;34485;51.536;3.816;2022-12-31T18:13:06;14.13;;;4.50;;
48685;SDS011;34485;51.536;3.816;2022-12-31T18:15:38;6.90;;;3.10;;
48685;SDS011;34485;51.536;3.816;2022-12-31T18:18:23;8.25;;;3.60;;
48685;SDS011;34485;51.536;3.816;2022-12-31T18:20:51;9.68;;;4.43;;
48685;SDS011;34485;51.536;3.816;2022-12-31T18:23:22;6.97;;;3.10;;
48685;SDS011;34485;51.536;3.816;2022-12-31T18:25:49;12.00;;;2.72;;
48685;SDS011;34485;51.536;3.816;2022-12-31T18:28:15;8.23;;;3.50;;
48685;SDS011;34485;51.536;3.816;2022-12-31T18:30:41;7.20;;;3.33;;
48685;SDS011;34485;51.536;3.816;2022-12-31T18:33:09;8.15;;;3.72;;
48685;SDS011;34485;51.536;3.816;2022-12-31T18:35:43;9.18;;;3.33;;
48685;SDS011;34485;51.536;3.816;2022-12-31T18:38:12;7.13;;;3.47;;
48685;SDS011;34485;51.536;3.816;2022-12-31T18:40:40;6.85;;;3.42;;
48685;SDS011;34485;51.536;3.816;2022-12-31T18:43:14;12.73;;;3.20;;
48685;SDS011;34485;51.536;3.816;2022-12-31T18:45:41;7.63;;;3.45;;
48685;SDS011;34485;51.536;3.816;2022-12-31T18:48:07;10.90;;;3.50;;
48685;SDS011;34485;51.536;3.816;2022-12-31T18:50:33;10.13;;;3.95;;
48685;SDS011;34485;51.536;3.816;2022-12-31T18:52:59;8.80;;;3.63;;
48685;SDS011;34485;51.536;3.816;2022-12-31T18:55:26;9.57;;;3.53;;
48685;SDS011;34485;51.536;3.816;2022-12-31T18:57:55;11.85;;;3.25;;
48685;SDS011;34485;51.536;3.816;2022-12-31T19:00:20;18.85;;;3.70;;
48685;SDS011;34485;51.536;3.816;2022-12-31T19:02:46;7.47;;;2.83;;
48685;SDS011;34485;51.536;3.816;2022-12-31T19:05:18;8.70;;;3.57;;
48685;SDS011;34485;51.536;3.816;2022-12-31T19:07:46;9.47;;;3.53;;
48685;SDS011;34485;51.536;3.816;2022-12-31T19:10:12;12.32;;;4.50;;
48685;SDS011;34485;51.536;3.816;2022-12-31T19:12:39;8.40;;;3.47;;
48685;SDS011;34485;51.536;3.816;2022-12-31T19:15:13;14.20;;;3.42;;
48685;SDS011;34485;51.536;3.816;2022-12-31T19:17:46;14.05;;;4.22;;
48685;SDS011;34485;51.536;3.816;2022-12-31T19:20:11;13.07;;;3.70;;
48685;SDS011;34485;51.536;3.816;2022-12-31T19:22:37;6.47;;;2.73;;
48685;SDS011;34485;51.536;3.816;2022-12-31T19:25:06;6.03;;;3.20;;
48685;SDS011;34485;51.536;3.816;2022-12-31T19:27:41;10.40;;;3.55;;